createdAt,value
2023-04-23T00:01:50.246Z,98911.00
2023-04-23T00:04:19.455Z,98909.34
2023-04-23T00:06:48.096Z,98909.31
2023-04-23T00:09:16.850Z,98909.28
2023-04-23T00:11:44.980Z,98911.94
2023-04-23T00:14:12.764Z,98917.22
2023-04-23T00:16:40.996Z,98914.62
2023-04-23T00:19:08.992Z,98917.25
2023-04-23T00:21:36.414Z,98905.06
2023-04-23T00:24:03.853Z,98918.13
2023-04-23T00:26:31.493Z,98919.00
2023-04-23T00:28:59.039Z,98904.22
2023-04-23T00:31:28.209Z,98905.09
2023-04-23T00:33:56.155Z,98911.16
2023-04-23T00:36:23.819Z,98907.69
2023-04-23T00:38:51.259Z,98898.22
2023-04-23T00:41:19.512Z,98911.22
2023-04-23T00:43:49.113Z,98903.44
2023-04-23T00:46:17.397Z,98899.12
2023-04-23T00:48:46.456Z,98900.84
2023-04-23T00:51:13.938Z,98900.84
2023-04-23T00:53:41.303Z,98908.66
2023-04-23T00:56:09.652Z,98900.84
2023-04-23T00:58:37.045Z,98904.31
2023-04-23T01:01:04.989Z,98905.22
2023-04-23T01:03:36.435Z,98900.88
2023-04-23T01:06:04.616Z,98907.81
2023-04-23T01:08:32.575Z,98902.59
2023-04-23T01:11:00.666Z,98899.94
2023-04-23T01:13:29.836Z,98903.50
2023-04-23T01:15:57.530Z,98903.50
2023-04-23T01:18:25.185Z,98900.94
2023-04-23T01:20:52.619Z,98896.59
2023-04-23T01:23:20.221Z,98895.75
2023-04-23T01:25:48.026Z,98889.69
2023-04-23T01:28:15.575Z,98898.34
2023-04-23T01:30:44.016Z,98896.59
2023-04-23T01:33:11.791Z,98888.81
2023-04-23T01:35:41.337Z,98892.25
2023-04-23T01:38:11.103Z,98889.63
2023-04-23T01:40:38.799Z,98893.16
2023-04-23T01:43:08.542Z,98892.25
2023-04-23T01:45:36.255Z,98894.03
2023-04-23T01:48:04.325Z,98887.91
2023-04-23T01:50:31.849Z,98891.41
2023-04-23T01:52:59.290Z,98890.53
2023-04-23T01:55:27.406Z,98890.56
2023-04-23T01:57:54.861Z,98892.28
2023-04-23T02:00:22.269Z,98882.72
2023-04-23T02:02:52.572Z,98885.38
2023-04-23T02:05:20.806Z,98884.47
2023-04-23T02:07:49.956Z,98881.03
2023-04-23T02:10:18.692Z,98882.75
2023-04-23T02:12:47.014Z,98881.91
2023-04-23T02:15:15.817Z,98872.37
2023-04-23T02:17:43.246Z,98885.38
2023-04-23T02:20:11.447Z,98878.44
2023-04-23T02:22:40.874Z,98876.69
2023-04-23T02:25:09.287Z,98880.19
2023-04-23T02:27:37.009Z,98871.50
2023-04-23T02:30:04.822Z,98872.37
2023-04-23T02:32:32.284Z,98870.63
2023-04-23T02:35:02.029Z,98874.09
2023-04-23T02:37:29.408Z,98870.63
2023-04-23T02:39:56.790Z,98870.63
2023-04-23T02:42:24.471Z,98874.09
2023-04-23T02:44:51.882Z,98861.97
2023-04-23T02:47:19.430Z,98869.78
2023-04-23T02:49:47.226Z,98857.63
2023-04-23T02:52:14.786Z,98860.25
2023-04-23T02:54:42.427Z,98866.28
2023-04-23T02:57:10.625Z,98859.38
2023-04-23T02:59:38.651Z,98859.38
2023-04-23T03:02:06.374Z,98860.25
2023-04-23T03:04:34.394Z,98863.69
2023-04-23T03:07:01.816Z,98858.50
2023-04-23T03:09:29.218Z,98859.34
2023-04-23T03:11:57.712Z,98854.19
2023-04-23T03:14:25.378Z,98851.56
2023-04-23T03:16:52.878Z,98858.50
2023-04-23T03:19:20.756Z,98855.94
2023-04-23T03:21:48.132Z,98858.50
2023-04-23T03:24:16.170Z,98861.12
2023-04-23T03:26:45.340Z,98853.28
2023-04-23T03:29:12.691Z,98855.88
2023-04-23T03:31:40.115Z,98854.19
2023-04-23T03:34:08.470Z,98855.03
2023-04-23T03:36:37.209Z,98853.31
2023-04-23T03:39:04.745Z,98859.34
2023-04-23T03:41:33.875Z,98855.94
2023-04-23T03:44:35.978Z,98861.97
2023-04-23T03:47:03.879Z,98868.91
2023-04-23T03:49:31.863Z,98861.97
2023-04-23T03:51:59.285Z,98857.66
2023-04-23T03:54:28.280Z,98861.97
2023-04-23T03:56:57.651Z,98861.97
2023-04-23T03:59:25.221Z,98862.00
2023-04-23T04:01:53.271Z,98861.09
2023-04-23T04:04:21.320Z,98859.38
2023-04-23T04:06:49.132Z,98868.03
2023-04-23T04:09:17.176Z,98866.31
2023-04-23T04:11:44.871Z,98864.56
2023-04-23T04:14:12.516Z,98871.53
2023-04-23T04:16:40.324Z,98871.50
2023-04-23T04:19:07.970Z,98868.03
2023-04-23T04:21:35.778Z,98875.84
2023-04-23T04:24:04.737Z,98874.06
2023-04-23T04:26:33.728Z,98873.13
2023-04-23T04:29:04.658Z,98881.75
2023-04-23T04:31:32.586Z,98881.59
2023-04-23T04:33:59.960Z,98880.59
2023-04-23T04:36:28.720Z,98876.09
2023-04-23T04:38:58.596Z,98876.91
2023-04-23T04:41:26.147Z,98879.44
2023-04-23T04:43:54.727Z,98878.22
2023-04-23T04:46:22.395Z,98883.09
2023-04-23T04:48:50.193Z,98881.22
2023-04-23T04:51:17.671Z,98874.81
2023-04-23T04:53:45.306Z,98882.53
2023-04-23T04:56:12.704Z,98883.16
2023-04-23T04:58:40.359Z,98882.31
2023-04-23T05:01:08.076Z,98886.41
2023-04-23T05:03:37.200Z,98886.09
2023-04-23T05:06:04.780Z,98884.88
2023-04-23T05:08:32.495Z,98886.31
2023-04-23T05:11:01.064Z,98888.41
2023-04-23T05:13:28.540Z,98891.16
2023-04-23T05:15:56.252Z,98888.53
2023-04-23T05:18:23.600Z,98879.00
2023-04-23T05:20:51.179Z,98886.00
2023-04-23T05:23:19.323Z,98888.22
2023-04-23T05:25:47.315Z,98893.59
2023-04-23T05:28:15.421Z,98885.94
2023-04-23T05:30:43.488Z,98883.25
2023-04-23T05:33:13.497Z,98885.78
2023-04-23T05:35:40.913Z,98894.59
2023-04-23T05:38:09.065Z,98896.72
2023-04-23T05:40:36.502Z,98892.78
2023-04-23T05:43:03.857Z,98887.16
2023-04-23T05:45:31.629Z,98890.28
2023-04-23T05:47:59.948Z,98887.78
2023-04-23T05:50:27.516Z,98892.19
2023-04-23T05:52:55.362Z,98891.50
2023-04-23T05:55:24.006Z,98885.88
2023-04-23T05:57:51.509Z,98892.31
2023-04-23T06:00:19.141Z,98894.69
2023-04-23T06:02:47.891Z,98895.78
2023-04-23T06:05:16.905Z,98900.44
2023-04-23T06:07:44.445Z,98891.97
2023-04-23T06:10:12.825Z,98903.31
2023-04-23T06:12:42.134Z,98899.69
2023-04-23T06:15:11.345Z,98906.25
2023-04-23T06:17:39.180Z,98900.75
2023-04-23T06:20:07.689Z,98904.06
2023-04-23T06:22:35.070Z,98904.69
2023-04-23T06:25:02.830Z,98904.72
2023-04-23T06:27:30.925Z,98910.84
2023-04-23T06:29:59.268Z,98904.41
2023-04-23T06:32:27.009Z,98902.06
2023-04-23T06:35:00.826Z,98907.53
2023-04-23T06:37:31.795Z,98901.28
2023-04-23T06:39:59.658Z,98901.13
2023-04-23T06:42:27.230Z,98912.00
2023-04-23T06:44:57.100Z,98912.56
2023-04-23T06:47:24.691Z,98908.81
2023-04-23T06:49:52.265Z,98909.81
2023-04-23T06:52:19.936Z,98911.53
2023-04-23T06:54:47.334Z,98912.44
2023-04-23T06:57:14.746Z,98906.47
2023-04-23T06:59:42.416Z,98901.81
2023-04-23T07:02:10.050Z,98898.63
2023-04-23T07:04:37.577Z,98889.44
2023-04-23T07:07:05.880Z,98898.41
2023-04-23T07:09:33.300Z,98897.44
2023-04-23T07:12:01.620Z,98899.16
2023-04-23T07:14:29.318Z,98895.31
2023-04-23T07:16:57.432Z,98891.38
2023-04-23T07:19:25.607Z,98895.91
2023-04-23T07:21:53.793Z,98890.50
2023-04-23T07:24:21.252Z,98886.41
2023-04-23T07:26:48.654Z,98884.53
2023-04-23T07:29:16.714Z,98894.31
2023-04-23T07:31:44.623Z,98894.97
2023-04-23T07:34:16.841Z,98890.91
2023-04-23T07:36:44.431Z,98895.44
2023-04-23T07:39:11.826Z,98889.78
2023-04-23T07:41:42.321Z,98887.13
2023-04-23T07:44:09.860Z,98885.44
2023-04-23T07:46:37.291Z,98882.44
2023-04-23T07:49:04.995Z,98889.31
2023-04-23T07:51:32.444Z,98890.94
2023-04-23T07:53:59.817Z,98893.94
2023-04-23T07:56:27.516Z,98895.84
2023-04-23T07:58:56.655Z,98893.88
2023-04-23T08:01:24.633Z,98893.63
2023-04-23T08:03:52.677Z,98885.09
2023-04-23T08:06:20.250Z,98887.94
2023-04-23T08:08:47.662Z,98882.50
2023-04-23T08:11:15.630Z,98882.09
2023-04-23T08:13:43.194Z,98882.50
2023-04-23T08:16:11.704Z,98890.41
2023-04-23T08:18:39.876Z,98881.09
2023-04-23T08:21:07.573Z,98886.41
2023-04-23T08:23:34.988Z,98880.53
2023-04-23T08:26:02.923Z,98879.87
2023-04-23T08:28:31.142Z,98877.38
2023-04-23T08:30:58.612Z,98881.50
2023-04-23T08:33:26.377Z,98890.94
2023-04-23T08:35:53.798Z,98877.69
2023-04-23T08:38:21.302Z,98878.25
2023-04-23T08:40:49.530Z,98879.19
2023-04-23T08:43:19.911Z,98877.16
2023-04-23T08:45:48.698Z,98881.94
2023-04-23T08:48:16.995Z,98878.22
2023-04-23T08:50:44.762Z,98869.12
2023-04-23T08:53:18.897Z,98866.78
2023-04-23T08:55:47.407Z,98874.69
2023-04-23T08:58:15.485Z,98870.44
2023-04-23T09:00:43.839Z,98867.63
2023-04-23T09:03:11.771Z,98871.09
2023-04-23T09:05:40.061Z,98868.91
2023-04-23T09:08:08.748Z,98862.06
2023-04-23T09:10:38.022Z,98856.88
2023-04-23T09:13:05.540Z,98862.16
2023-04-23T09:15:33.016Z,98850.03
2023-04-23T09:18:00.868Z,98856.66
2023-04-23T09:20:28.415Z,98859.84
2023-04-23T09:22:56.023Z,98847.22
2023-04-23T09:25:24.586Z,98849.94
2023-04-23T09:27:53.207Z,98850.19
2023-04-23T09:30:20.955Z,98846.72
2023-04-23T09:32:49.638Z,98848.81
2023-04-23T09:35:19.624Z,98849.19
2023-04-23T09:37:52.873Z,98842.47
2023-04-23T09:40:23.514Z,98839.53
2023-04-23T09:42:55.857Z,98851.09
2023-04-23T09:45:26.795Z,98834.59
2023-04-23T09:47:56.359Z,98844.88
2023-04-23T09:50:37.945Z,98834.87
2023-04-23T09:53:07.202Z,98835.25
2023-04-23T09:55:39.360Z,98839.94
2023-04-23T09:58:11.266Z,98844.78
2023-04-23T10:00:40.108Z,98829.84
2023-04-23T10:03:09.058Z,98826.63
2023-04-23T10:08:16.121Z,98821.19
2023-04-23T10:10:59.452Z,98822.25
2023-04-23T10:13:32.658Z,98823.50
2023-04-23T10:16:14.000Z,98799.91
2023-04-23T10:18:46.560Z,98808.44
2023-04-23T10:21:15.028Z,98806.72
2023-04-23T10:23:44.561Z,98806.94
2023-04-23T10:26:15.191Z,98799.84
2023-04-23T10:28:46.448Z,98797.75
2023-04-23T10:31:14.624Z,98792.03
2023-04-23T10:33:56.170Z,98800.94
2023-04-23T10:36:27.716Z,98793.00
2023-04-23T10:39:00.362Z,98779.00
2023-04-23T10:41:34.577Z,98791.22
2023-04-23T10:44:03.719Z,98789.06
2023-04-23T10:46:32.609Z,98785.22
2023-04-23T10:49:16.320Z,98771.19
2023-04-23T10:54:19.897Z,98771.94
2023-04-23T10:56:58.570Z,98775.00
2023-04-23T10:59:26.930Z,98768.53
2023-04-23T11:01:58.075Z,98757.59
2023-04-23T11:04:30.179Z,98771.28
2023-04-23T11:07:05.312Z,98778.28
2023-04-23T11:09:38.964Z,98775.84
2023-04-23T11:12:28.286Z,98769.34
2023-04-23T11:14:56.374Z,98776.25
2023-04-23T11:17:24.912Z,98769.13
2023-04-23T11:20:06.736Z,98773.53
2023-04-23T11:22:39.217Z,98774.00
2023-04-23T11:25:11.215Z,98770.00
2023-04-23T11:27:45.877Z,98777.03
2023-04-23T11:30:15.519Z,98775.00
2023-04-23T11:32:50.613Z,98764.56
2023-04-23T11:35:29.845Z,98768.25
2023-04-23T11:37:57.581Z,98772.50
2023-04-23T11:40:25.807Z,98756.00
2023-04-23T11:42:57.692Z,98765.09
2023-04-23T11:45:29.243Z,98756.31
2023-04-23T11:47:58.073Z,98753.75
2023-04-23T11:50:29.004Z,98743.47
2023-04-23T11:52:56.870Z,98739.75
2023-04-23T11:55:25.531Z,98744.34
2023-04-23T11:57:53.336Z,98740.53
2023-04-23T12:00:25.388Z,98743.16
2023-04-23T12:02:58.001Z,98743.00
2023-04-23T12:05:30.949Z,98747.38
2023-04-23T12:08:17.824Z,98736.66
2023-04-23T12:11:00.019Z,98730.22
2023-04-23T12:13:34.569Z,98713.87
2023-04-23T12:16:04.540Z,98724.91
2023-04-23T12:18:37.903Z,98715.09
2023-04-23T12:21:14.520Z,98724.06
2023-04-23T12:23:44.789Z,98720.69
2023-04-23T12:26:15.262Z,98723.25
2023-04-23T12:29:01.492Z,98722.13
2023-04-23T12:31:30.050Z,98719.41
2023-04-23T12:34:05.406Z,98715.38
2023-04-23T12:36:37.976Z,98722.47
2023-04-23T12:39:26.116Z,98710.06
2023-04-23T12:42:00.631Z,98708.00
2023-04-23T12:44:29.697Z,98702.22
2023-04-23T12:46:59.566Z,98699.94
2023-04-23T12:49:27.534Z,98704.22
2023-04-23T12:51:57.823Z,98695.88
2023-04-23T12:54:29.736Z,98702.81
2023-04-23T12:56:58.848Z,98692.81
2023-04-23T12:59:26.527Z,98693.88
2023-04-23T13:01:56.071Z,98696.09
2023-04-23T13:04:25.055Z,98691.06
2023-04-23T13:06:52.424Z,98694.09
2023-04-23T13:09:19.846Z,98677.94
2023-04-23T13:11:49.782Z,98681.94
2023-04-23T13:14:35.090Z,98672.19
2023-04-23T13:17:02.800Z,98662.97
2023-04-23T13:19:30.308Z,98665.72
2023-04-23T13:21:57.734Z,98662.03
2023-04-23T13:24:25.668Z,98663.50
2023-04-23T13:26:53.036Z,98651.50
2023-04-23T13:29:20.428Z,98650.50
2023-04-23T13:31:50.551Z,98655.66
2023-04-23T13:34:18.458Z,98655.62
2023-04-23T13:36:46.131Z,98638.38
2023-04-23T13:39:14.310Z,98644.72
2023-04-23T13:44:09.488Z,98641.72
2023-04-23T13:46:37.197Z,98640.91
2023-04-23T13:49:04.654Z,98625.47
2023-04-23T13:51:35.644Z,98625.06
2023-04-23T13:54:04.078Z,98632.62
2023-04-23T13:56:31.756Z,98625.62
2023-04-23T13:59:19.375Z,98622.75
2023-04-23T14:01:50.286Z,98619.00
2023-04-23T14:04:18.930Z,98606.06
2023-04-23T14:06:46.415Z,98605.28
2023-04-23T14:09:13.776Z,98608.34
2023-04-23T14:11:41.702Z,98606.69
2023-04-23T14:14:09.250Z,98614.56
2023-04-23T14:16:36.700Z,98616.53
2023-04-23T14:19:04.795Z,98615.34
2023-04-23T14:21:32.198Z,98601.03
2023-04-23T14:24:03.402Z,98602.25
2023-04-23T14:26:44.784Z,98587.78
2023-04-23T14:29:37.842Z,98601.00
2023-04-23T14:32:06.461Z,98597.97
2023-04-23T14:34:36.802Z,98593.06
2023-04-23T14:37:04.424Z,98593.09
2023-04-23T14:39:33.949Z,98594.50
2023-04-23T14:42:01.351Z,98590.75
2023-04-23T14:44:29.120Z,98585.13
2023-04-23T14:46:58.011Z,98575.69
2023-04-23T14:49:25.594Z,98574.44
2023-04-23T14:51:54.594Z,98577.75
2023-04-23T14:54:22.778Z,98578.75
2023-04-23T14:56:54.281Z,98578.97
2023-04-23T14:59:21.947Z,98576.37
2023-04-23T15:01:49.486Z,98574.19
2023-04-23T15:04:17.035Z,98576.31
2023-04-23T15:06:44.864Z,98577.25
2023-04-23T15:09:12.302Z,98567.00
2023-04-23T15:11:41.734Z,98585.88
2023-04-23T15:14:45.323Z,98578.97
2023-04-23T15:17:12.871Z,98576.00
2023-04-23T15:19:40.986Z,98578.56
2023-04-23T15:22:08.598Z,98567.47
2023-04-23T15:24:35.942Z,98579.78
2023-04-23T15:27:03.747Z,98570.84
2023-04-23T15:29:31.291Z,98576.94
2023-04-23T15:31:59.641Z,98567.59
2023-04-23T15:34:27.367Z,98569.16
2023-04-23T15:36:54.814Z,98562.06
2023-04-23T15:39:22.339Z,98561.81
2023-04-23T15:41:51.473Z,98549.22
2023-04-23T15:44:19.271Z,98555.88
2023-04-23T15:46:46.705Z,98561.47
2023-04-23T15:49:14.528Z,98555.22
2023-04-23T15:51:42.341Z,98548.41
2023-04-23T15:54:09.800Z,98557.72
2023-04-23T15:56:37.658Z,98559.87
2023-04-23T15:59:06.091Z,98544.44
2023-04-23T16:01:33.784Z,98552.56
2023-04-23T16:06:49.308Z,98557.28
2023-04-23T16:09:16.931Z,98557.16
2023-04-23T16:11:44.662Z,98542.44
2023-04-23T16:14:12.296Z,98531.47
2023-04-23T16:16:40.155Z,98538.72
2023-04-23T16:19:07.642Z,98534.41
2023-04-23T16:21:35.462Z,98541.84
2023-04-23T16:24:03.816Z,98542.56
2023-04-23T16:26:32.303Z,98541.28
2023-04-23T16:29:11.276Z,98541.38
2023-04-23T16:31:45.573Z,98539.38
2023-04-23T16:34:13.100Z,98533.91
2023-04-23T16:36:41.147Z,98535.41
2023-04-23T16:39:09.536Z,98535.94
2023-04-23T16:41:39.465Z,98532.59
2023-04-23T16:44:07.014Z,98540.34
2023-04-23T16:46:34.740Z,98533.88
2023-04-23T16:49:03.285Z,98538.56
2023-04-23T16:51:32.406Z,98527.34
2023-04-23T16:54:00.057Z,98530.03
2023-04-23T16:56:27.691Z,98525.13
2023-04-23T16:58:55.164Z,98519.28
2023-04-23T17:01:23.006Z,98515.69
2023-04-23T17:03:50.998Z,98519.88
2023-04-23T17:06:31.997Z,98521.22
2023-04-23T17:09:01.601Z,98522.69
2023-04-23T17:11:30.847Z,98520.34
2023-04-23T17:13:59.208Z,98517.84
2023-04-23T17:16:28.685Z,98525.06
2023-04-23T17:18:58.139Z,98524.41
2023-04-23T17:21:26.399Z,98524.50
2023-04-23T17:23:54.656Z,98522.69
2023-04-23T17:26:23.506Z,98518.59
2023-04-23T17:28:51.919Z,98520.00
2023-04-23T17:31:22.947Z,98519.72
2023-04-23T17:33:55.095Z,98520.75
2023-04-23T17:36:23.323Z,98519.50
2023-04-23T17:38:51.620Z,98511.59
2023-04-23T17:41:19.459Z,98523.72
2023-04-23T17:43:47.718Z,98529.75
2023-04-23T17:46:16.026Z,98527.19
2023-04-23T17:48:45.280Z,98521.50
2023-04-23T17:51:18.817Z,98528.03
2023-04-23T17:53:51.471Z,98522.03
2023-04-23T17:56:20.009Z,98531.22
2023-04-23T17:58:49.919Z,98540.13
2023-04-23T18:01:18.031Z,98538.66
2023-04-23T18:03:48.034Z,98541.16
2023-04-23T18:06:19.543Z,98539.63
2023-04-23T18:08:51.154Z,98540.25
2023-04-23T18:11:24.079Z,98535.41
2023-04-23T18:13:54.064Z,98538.31
2023-04-23T18:16:22.353Z,98546.50
2023-04-23T18:18:50.400Z,98540.41
2023-04-23T18:21:18.615Z,98544.91
2023-04-23T18:23:47.126Z,98548.56
2023-04-23T18:26:15.765Z,98541.66
2023-04-23T18:28:48.684Z,98550.81
2023-04-23T18:31:20.637Z,98555.25
2023-04-23T18:33:54.815Z,98563.13
2023-04-23T18:36:32.077Z,98562.50
2023-04-23T18:39:01.708Z,98559.22
2023-04-23T18:41:31.408Z,98560.59
2023-04-23T18:44:00.586Z,98562.44
2023-04-23T18:46:31.278Z,98566.66
2023-04-23T18:49:01.397Z,98563.28
2023-04-23T18:51:44.473Z,98563.56
2023-04-23T18:54:15.521Z,98562.66
2023-04-23T18:56:47.789Z,98568.97
2023-04-23T18:59:15.958Z,98564.00
2023-04-23T19:01:46.779Z,98569.19
2023-04-23T19:04:15.627Z,98566.72
2023-04-23T19:06:46.238Z,98566.88
2023-04-23T19:09:14.925Z,98571.19
2023-04-23T19:11:48.255Z,98562.81
2023-04-23T19:14:17.100Z,98564.19
2023-04-23T19:16:48.219Z,98571.41
2023-04-23T19:19:17.422Z,98567.28
2023-04-23T19:21:45.515Z,98570.59
2023-04-23T19:24:13.596Z,98569.19
2023-04-23T19:26:42.014Z,98580.25
2023-04-23T19:29:10.636Z,98572.34
2023-04-23T19:31:39.008Z,98573.28
2023-04-23T19:34:10.552Z,98565.72
2023-04-23T19:36:39.954Z,98572.66
2023-04-23T19:39:10.447Z,98571.06
2023-04-23T19:41:39.562Z,98567.66
2023-04-23T19:44:12.946Z,98570.56
2023-04-23T19:47:03.560Z,98565.53
2023-04-23T19:49:39.287Z,98563.38
2023-04-23T19:52:07.303Z,98562.66
2023-04-23T19:54:35.609Z,98563.31
2023-04-23T19:57:05.142Z,98558.09
2023-04-23T19:59:33.991Z,98557.19
2023-04-23T20:02:02.433Z,98558.19
2023-04-23T20:04:31.354Z,98552.31
2023-04-23T20:06:59.464Z,98553.22
2023-04-23T20:09:28.724Z,98548.09
2023-04-23T20:11:56.871Z,98549.06
2023-04-23T20:14:25.449Z,98547.34
2023-04-23T20:16:53.122Z,98552.69
2023-04-23T20:19:25.984Z,98549.06
2023-04-23T20:21:54.011Z,98548.47
2023-04-23T20:24:21.901Z,98540.84
2023-04-23T20:26:49.749Z,98532.78
2023-04-23T20:29:17.331Z,98538.75
2023-04-23T20:31:49.599Z,98545.63
2023-04-23T20:34:18.377Z,98537.81
2023-04-23T20:36:51.143Z,98534.72
2023-04-23T20:39:21.101Z,98540.06
2023-04-23T20:41:50.744Z,98536.53
2023-04-23T20:44:22.347Z,98529.47
2023-04-23T20:46:51.399Z,98534.16
2023-04-23T20:49:20.873Z,98530.34
2023-04-23T20:51:51.562Z,98533.94
2023-04-23T20:54:18.977Z,98533.97
2023-04-23T20:56:46.369Z,98526.41
2023-04-23T20:59:14.496Z,98528.53
2023-04-23T21:01:42.117Z,98523.72
2023-04-23T21:04:10.926Z,98526.62
2023-04-23T21:06:39.130Z,98531.69
2023-04-23T21:09:06.949Z,98524.31
2023-04-23T21:11:34.568Z,98520.44
2023-04-23T21:14:02.242Z,98521.63
2023-04-23T21:16:29.726Z,98519.22
2023-04-23T21:18:57.230Z,98520.88
2023-04-23T21:21:28.001Z,98517.59
2023-04-23T21:23:56.518Z,98512.34
2023-04-23T21:26:24.174Z,98510.59
2023-04-23T21:28:51.815Z,98512.03
2023-04-23T21:31:29.758Z,98509.41
2023-04-23T21:33:57.518Z,98501.25
2023-04-23T21:36:24.984Z,98508.31
2023-04-23T21:38:53.139Z,98497.13
2023-04-23T21:41:20.835Z,98494.69
2023-04-23T21:43:48.256Z,98493.28
2023-04-23T21:46:16.224Z,98487.56
2023-04-23T21:48:43.889Z,98480.91
2023-04-23T21:51:11.717Z,98478.66
2023-04-23T21:53:39.844Z,98480.12
2023-04-23T21:56:07.464Z,98480.44
2023-04-23T21:58:36.095Z,98469.87
2023-04-23T22:01:04.039Z,98480.69
2023-04-23T22:03:38.671Z,98466.19
2023-04-23T22:06:08.215Z,98473.88
2023-04-23T22:08:38.140Z,98466.06
2023-04-23T22:11:07.578Z,98466.00
2023-04-23T22:13:36.357Z,98467.16
2023-04-23T22:16:10.737Z,98467.16
2023-04-23T22:18:47.269Z,98468.87
2023-04-23T22:21:15.549Z,98466.91
2023-04-23T22:23:43.125Z,98468.81
2023-04-23T22:26:10.617Z,98462.88
2023-04-23T22:28:38.420Z,98459.44
2023-04-23T22:31:05.829Z,98468.97
2023-04-23T22:33:33.205Z,98457.66
2023-04-23T22:36:01.297Z,98457.22
2023-04-23T22:38:29.830Z,98450.38
2023-04-23T22:40:57.272Z,98449.31
2023-04-23T22:43:24.956Z,98454.94
2023-04-23T22:45:52.362Z,98452.34
2023-04-23T22:48:19.824Z,98455.28
2023-04-23T22:50:50.850Z,98450.56
2023-04-23T22:53:19.643Z,98445.25
2023-04-23T22:55:47.440Z,98435.75
2023-04-23T22:58:15.285Z,98434.62
2023-04-23T23:00:42.662Z,98425.97
2023-04-23T23:03:10.504Z,98426.03
2023-04-23T23:05:38.117Z,98422.19
2023-04-23T23:08:06.756Z,98417.22
2023-04-23T23:10:34.434Z,98401.88
2023-04-23T23:13:02.099Z,98408.31
2023-04-23T23:15:29.549Z,98410.81
2023-04-23T23:17:57.860Z,98394.28
2023-04-23T23:20:25.562Z,98402.19
2023-04-23T23:22:52.971Z,98401.56
2023-04-23T23:25:20.695Z,98394.09
2023-04-23T23:27:48.075Z,98400.41
2023-04-23T23:30:16.265Z,98396.56
2023-04-23T23:32:43.989Z,98384.34
2023-04-23T23:35:11.557Z,98390.25
2023-04-23T23:37:38.929Z,98388.25
2023-04-23T23:40:07.429Z,98379.66
2023-04-23T23:42:35.133Z,98390.22
2023-04-23T23:45:02.849Z,98387.00
2023-04-23T23:47:31.166Z,98382.09
2023-04-23T23:49:59.185Z,98383.34
2023-04-23T23:52:26.610Z,98378.56
2023-04-23T23:54:54.298Z,98375.28
2023-04-23T23:57:21.834Z,98383.38
2023-04-23T23:59:49.207Z,98386.31
